Time;durP1;ratioP1;P1;durP2;ratioP2;P2;SDS_P1;SDS_P2;PMS_P1;PMS_P2;Temp;Humidity;BMP_temperature;BMP_pressure;BME280_temperature;BME280_humidity;BME280_pressure;Samples;Min_cycle;Max_cycle;Signal;HPM_P1;HPM_P2
2021/04/17 00:01:34;;;;;;;1.10;0.95;;;5.60;61.80;;;;;;5075132;28;20387;-87
2021/04/17 00:04:02;;;;;;;1.67;1.17;;;5.50;61.80;;;;;;5076018;28;20111;-88
2021/04/17 00:06:27;;;;;;;1.45;1.23;;;5.50;61.80;;;;;;5074467;28;20021;-88
2021/04/17 00:08:53;;;;;;;1.33;0.80;;;5.50;61.90;;;;;;5075038;28;20090;-86
2021/04/17 00:11:20;;;;;;;1.75;1.48;;;5.50;62.00;;;;;;5075285;28;20021;-86
2021/04/17 00:13:45;;;;;;;2.05;1.08;;;5.50;62.10;;;;;;5075220;28;20067;-86
2021/04/17 00:16:12;;;;;;;2.20;1.45;;;5.50;62.20;;;;;;5076439;28;20013;-85
2021/04/17 00:18:37;;;;;;;2.10;1.10;;;5.40;62.20;;;;;;5075923;28;20025;-87
2021/04/17 00:21:04;;;;;;;1.30;1.10;;;5.40;62.40;;;;;;5075638;28;20077;-88
2021/04/17 00:23:29;;;;;;;2.25;1.30;;;5.40;62.60;;;;;;5075838;28;20031;-86
2021/04/17 00:25:55;;;;;;;0.82;0.82;;;5.30;62.60;;;;;;5075239;28;20024;-86
2021/04/17 00:28:21;;;;;;;1.98;1.05;;;5.30;63.30;;;;;;5075359;28;20059;-88
2021/04/17 00:30:46;;;;;;;1.13;0.90;;;5.30;62.70;;;;;;5075307;28;20037;-88
2021/04/17 00:33:12;;;;;;;1.52;0.98;;;5.30;62.80;;;;;;5075279;28;20464;-86
2021/04/17 00:35:38;;;;;;;1.73;1.42;;;5.30;62.80;;;;;;5074756;28;20021;-88
2021/04/17 00:38:03;;;;;;;0.95;0.70;;;5.30;62.80;;;;;;5074187;28;20028;-88
2021/04/17 00:40:29;;;;;;;1.73;1.33;;;5.20;62.90;;;;;;5074575;28;20028;-88
2021/04/17 00:42:54;;;;;;;1.55;0.88;;;5.20;62.90;;;;;;5075732;28;20051;-88
2021/04/17 00:45:20;;;;;;;1.67;1.17;;;5.20;63.00;;;;;;5075064;28;20388;-88
2021/04/17 00:47:46;;;;;;;2.35;1.27;;;5.20;63.00;;;;;;5075278;28;20104;-88
2021/04/17 00:50:12;;;;;;;0.88;0.88;;;5.20;63.20;;;;;;5075591;28;20036;-87
2021/04/17 00:52:40;;;;;;;1.40;1.30;;;5.20;63.20;;;;;;5075442;28;20024;-88
2021/04/17 00:55:08;;;;;;;2.45;1.30;;;5.10;63.20;;;;;;5073749;28;20423;-87
2021/04/17 00:57:33;;;;;;;1.35;1.20;;;5.10;63.30;;;;;;5074996;28;20029;-87
2021/04/17 00:59:59;;;;;;;1.00;0.73;;;5.10;63.40;;;;;;5074720;28;20020;-88
2021/04/17 01:02:29;;;;;;;1.25;1.05;;;5.10;63.50;;;;;;5075363;28;20028;-88
2021/04/17 01:04:56;;;;;;;0.93;0.90;;;5.00;63.50;;;;;;5074821;28;20094;-89
2021/04/17 01:07:35;;;;;;;0.70;0.70;;;5.00;63.50;;;;;;5074898;28;20025;-88
2021/04/17 01:10:24;;;;;;;1.15;1.05;;;5.00;63.60;;;;;;5074637;28;20109;-88
2021/04/17 01:12:51;;;;;;;;;;;4.90;63.70;;;;;;5075383;28;20107;-87
2021/04/17 01:15:18;;;;;;;0.80;0.77;;;4.80;63.50;;;;;;5074619;28;19962;-88
2021/04/17 01:17:48;;;;;;;0.77;0.65;;;4.80;63.70;;;;;;5074079;28;20427;-87
2021/04/17 01:20:19;;;;;;;0.88;0.73;;;4.80;63.80;;;;;;5074921;28;20107;-88
2021/04/17 01:22:56;;;;;;;1.52;0.88;;;4.80;63.90;;;;;;5074990;28;20013;-88
2021/04/17 01:25:23;;;;;;;0.88;0.70;;;4.80;64.00;;;;;;5075367;28;20074;-87
2021/04/17 01:27:49;;;;;;;0.68;0.68;;;4.80;64.00;;;;;;5077739;28;20040;-85
2021/04/17 01:30:19;;;;;;;0.75;0.75;;;4.80;64.00;;;;;;5080399;28;20055;-85
2021/04/17 01:32:46;;;;;;;0.90;0.68;;;4.80;64.10;;;;;;5082475;28;20453;-86
2021/04/17 01:35:15;;;;;;;0.45;0.45;;;4.70;64.10;;;;;;5076069;28;20024;-87
2021/04/17 01:37:53;;;;;;;1.33;0.85;;;4.70;64.20;;;;;;5076411;28;20021;-87
2021/04/17 01:40:21;;;;;;;0.68;0.68;;;4.70;64.30;;;;;;5078166;28;20033;-88
2021/04/17 01:42:46;;;;;;;1.67;1.02;;;4.70;64.30;;;;;;5078129;28;20021;-86
2021/04/17 01:45:17;;;;;;;0.80;0.80;;;4.60;64.30;;;;;;5077791;28;20078;-86
2021/04/17 01:47:43;;;;;;;0.90;0.60;;;4.60;64.40;;;;;;5078127;28;20028;-87
2021/04/17 01:50:12;;;;;;;1.35;0.90;;;4.60;64.50;;;;;;5078518;28;20028;-86
2021/04/17 01:52:43;;;;;;;1.02;0.70;;;4.60;64.50;;;;;;5078190;28;20024;-85
2021/04/17 01:55:09;;;;;;;1.45;1.00;;;4.60;64.60;;;;;;5077588;28;20435;-86
2021/04/17 01:57:36;;;;;;;1.00;0.80;;;4.60;64.70;;;;;;5076408;28;20444;-86
2021/04/17 02:00:04;;;;;;;1.60;1.20;;;4.60;64.80;;;;;;5077793;28;20392;-85
2021/04/17 02:02:30;;;;;;;1.45;1.20;;;4.50;64.90;;;;;;5077130;28;20020;-86
2021/04/17 02:04:55;;;;;;;1.33;1.00;;;4.60;65.00;;;;;;5077606;28;20023;-87
2021/04/17 02:07:20;;;;;;;1.70;1.10;;;4.50;65.10;;;;;;5077852;28;20108;-86
2021/04/17 02:09:46;;;;;;;0.65;0.65;;;4.50;65.10;;;;;;5077449;28;20040;-85
2021/04/17 02:12:12;;;;;;;1.08;0.98;;;4.50;65.20;;;;;;5076746;28;20032;-87
2021/04/17 02:14:40;;;;;;;1.75;1.42;;;4.50;65.30;;;;;;5077873;28;20054;-86
2021/04/17 02:17:16;;;;;;;1.35;1.10;;;4.50;65.40;;;;;;5076747;28;20021;-86
2021/04/17 02:19:46;;;;;;;1.75;1.10;;;4.50;65.50;;;;;;5077580;28;20511;-84
2021/04/17 02:22:13;;;;;;;0.73;0.73;;;4.40;65.50;;;;;;5077585;28;20055;-87
2021/04/17 02:24:39;;;;;;;1.88;1.02;;;4.40;65.60;;;;;;5076214;28;20035;-88
2021/04/17 02:27:05;;;;;;;1.17;1.08;;;4.40;65.60;;;;;;5077308;28;20024;-86
2021/04/17 02:29:32;;;;;;;1.40;1.13;;;4.40;66.40;;;;;;5075770;28;20107;-85
2021/04/17 02:31:58;;;;;;;1.58;1.25;;;4.40;65.90;;;;;;5073076;28;20500;-86
2021/04/17 02:34:24;;;;;;;1.15;0.80;;;4.40;66.00;;;;;;5077092;28;20028;-86
2021/04/17 02:36:49;;;;;;;1.15;1.00;;;4.40;66.00;;;;;;5077054;28;20035;-85
2021/04/17 02:39:15;;;;;;;1.67;1.02;;;4.30;66.10;;;;;;5076863;28;20028;-86
2021/04/17 02:41:40;;;;;;;1.33;0.85;;;4.30;66.10;;;;;;5077042;28;20040;-87
2021/04/17 02:44:06;;;;;;;1.40;1.30;;;4.30;66.20;;;;;;5076994;28;20495;-87
2021/04/17 02:46:32;;;;;;;0.93;0.80;;;4.20;66.20;;;;;;5075601;28;20053;-88
2021/04/17 02:48:58;;;;;;;1.05;0.88;;;4.20;66.30;;;;;;5076049;28;20039;-85
2021/04/17 02:51:23;;;;;;;1.45;1.13;;;4.20;66.40;;;;;;5076717;28;20021;-86
2021/04/17 02:53:49;;;;;;;0.82;0.82;;;4.10;66.40;;;;;;5076568;28;20035;-86
2021/04/17 02:56:15;;;;;;;1.10;0.95;;;4.10;66.50;;;;;;5076178;28;20027;-84
2021/04/17 02:58:43;;;;;;;0.70;0.70;;;4.10;66.50;;;;;;5076379;28;20021;-85
2021/04/17 03:01:09;;;;;;;1.23;1.10;;;4.10;66.60;;;;;;5076744;28;20024;-86
2021/04/17 03:03:35;;;;;;;1.40;1.23;;;4.10;66.60;;;;;;5076513;28;20112;-84
2021/04/17 03:06:00;;;;;;;1.33;1.02;;;4.10;66.70;;;;;;5076434;28;20025;-86
2021/04/17 03:08:26;;;;;;;1.27;0.90;;;4.10;66.70;;;;;;5076469;28;20496;-87
2021/04/17 03:10:52;;;;;;;1.23;0.70;;;4.10;66.80;;;;;;5076559;28;20035;-84
2021/04/17 03:13:17;;;;;;;1.25;0.80;;;4.10;66.90;;;;;;5076919;28;20350;-84
2021/04/17 03:15:44;;;;;;;1.13;1.02;;;4.10;67.00;;;;;;5076011;28;20353;-85
2021/04/17 03:18:10;;;;;;;1.40;0.90;;;4.10;67.00;;;;;;5076064;28;20025;-87
2021/04/17 03:20:36;;;;;;;1.50;1.15;;;4.00;67.10;;;;;;5076867;28;20124;-85
2021/04/17 03:23:03;;;;;;;1.15;0.70;;;4.00;67.10;;;;;;5078550;28;20042;-84
2021/04/17 03:25:28;;;;;;;1.05;0.75;;;4.00;67.30;;;;;;5075193;28;20515;-86
2021/04/17 03:27:54;;;;;;;1.33;0.82;;;4.00;67.30;;;;;;5075752;28;20017;-85
2021/04/17 03:30:27;;;;;;;1.55;1.00;;;4.00;67.40;;;;;;5075387;28;20046;-86
2021/04/17 03:32:53;;;;;;;1.13;0.93;;;4.00;67.40;;;;;;5076140;28;20040;-86
2021/04/17 03:35:19;;;;;;;1.25;0.65;;;4.00;67.50;;;;;;5075923;28;20031;-85
2021/04/17 03:37:44;;;;;;;0.90;0.80;;;4.00;67.60;;;;;;5076182;28;20021;-86
2021/04/17 03:40:10;;;;;;;0.90;0.90;;;4.00;67.60;;;;;;5075949;28;20028;-86
2021/04/17 03:42:36;;;;;;;1.15;0.90;;;4.00;67.80;;;;;;5075645;28;20017;-85
2021/04/17 03:45:04;;;;;;;1.27;0.80;;;4.00;67.80;;;;;;5075548;28;20029;-84
2021/04/17 03:47:29;;;;;;;1.15;0.93;;;4.00;67.90;;;;;;5075357;28;20056;-85
2021/04/17 03:49:55;;;;;;;1.60;1.42;;;4.00;68.00;;;;;;5076031;28;20063;-84
2021/04/17 03:52:21;;;;;;;0.70;0.70;;;4.00;68.00;;;;;;5076553;28;20048;-84
2021/04/17 03:54:46;;;;;;;0.85;0.82;;;4.00;68.10;;;;;;5075792;28;20039;-85
2021/04/17 03:57:12;;;;;;;0.95;0.82;;;4.00;68.20;;;;;;5075773;28;20025;-85
2021/04/17 03:59:38;;;;;;;1.08;0.98;;;4.00;68.50;;;;;;5075776;28;20025;-86
2021/04/17 04:02:04;;;;;;;1.63;1.52;;;4.00;68.30;;;;;;5076885;28;20054;-85
2021/04/17 04:04:29;;;;;;;1.50;1.02;;;4.00;68.40;;;;;;5077861;28;20329;-83
2021/04/17 04:06:55;;;;;;;1.73;1.45;;;4.00;68.40;;;;;;5078506;28;20404;-85
2021/04/17 04:09:21;;;;;;;0.77;0.77;;;4.00;68.50;;;;;;5077664;28;20033;-85
2021/04/17 04:11:46;;;;;;;1.67;0.95;;;4.00;68.60;;;;;;5078345;28;20056;-85
2021/04/17 04:14:12;;;;;;;0.80;0.80;;;4.10;68.60;;;;;;5078403;28;20029;-84
2021/04/17 04:16:37;;;;;;;0.95;0.90;;;4.10;68.60;;;;;;5080087;28;20025;-85
2021/04/17 04:19:03;;;;;;;1.52;1.05;;;4.00;68.60;;;;;;5078213;28;20020;-85
2021/04/17 04:21:28;;;;;;;1.80;1.27;;;4.10;68.80;;;;;;5076096;28;20039;-84
2021/04/17 04:23:54;;;;;;;0.82;0.80;;;4.10;68.80;;;;;;5077065;28;20020;-83
2021/04/17 04:26:19;;;;;;;1.10;1.00;;;4.00;68.80;;;;;;5080354;28;20031;-84
2021/04/17 04:28:45;;;;;;;1.25;0.95;;;4.10;69.00;;;;;;5080970;28;20507;-85
2021/04/17 04:31:10;;;;;;;1.45;1.10;;;4.10;69.00;;;;;;5079989;28;20044;-83
2021/04/17 04:33:36;;;;;;;0.77;0.77;;;4.10;69.00;;;;;;5079291;28;20052;-84
2021/04/17 04:36:02;;;;;;;1.48;1.13;;;4.10;69.10;;;;;;5076951;28;20108;-83
2021/04/17 04:38:28;;;;;;;0.63;0.60;;;4.10;69.20;;;;;;5077441;28;20021;-85
2021/04/17 04:40:53;;;;;;;1.25;0.75;;;4.10;69.10;;;;;;5077135;28;20039;-82
2021/04/17 04:43:19;;;;;;;3.55;0.85;;;4.10;69.10;;;;;;5074959;28;20028;-83
2021/04/17 04:45:44;;;;;;;1.38;0.98;;;4.10;69.20;;;;;;5076855;28;20025;-83
2021/04/17 04:48:10;;;;;;;0.80;0.80;;;4.10;69.30;;;;;;5077345;28;20040;-83
2021/04/17 04:50:37;;;;;;;1.08;0.90;;;4.10;69.40;;;;;;5078583;28;20024;-84
2021/04/17 04:53:03;;;;;;;1.25;1.15;;;4.10;70.10;;;;;;5078222;28;20028;-85
2021/04/17 04:55:28;;;;;;;1.00;1.00;;;4.10;69.50;;;;;;5078572;28;20024;-84
2021/04/17 04:57:54;;;;;;;1.00;0.90;;;4.10;69.50;;;;;;5075816;28;20111;-85
2021/04/17 05:00:20;;;;;;;1.08;0.98;;;4.10;69.60;;;;;;5079024;28;20027;-84
2021/04/17 05:02:49;;;;;;;1.50;0.98;;;4.10;69.60;;;;;;5078672;28;20395;-84
2021/04/17 05:05:14;;;;;;;1.20;1.10;;;4.10;69.60;;;;;;5078333;28;20016;-83
2021/04/17 05:07:40;;;;;;;1.00;0.70;;;4.20;69.60;;;;;;5079955;28;20020;-83
2021/04/17 05:10:06;;;;;;;1.63;0.88;;;4.20;69.70;;;;;;5083192;28;20151;-86
2021/04/17 05:12:32;;;;;;;1.58;1.00;;;4.20;69.60;;;;;;5076617;28;20099;-85
2021/04/17 05:14:58;;;;;;;0.77;0.77;;;4.20;69.70;;;;;;5078666;28;20441;-85
2021/04/17 05:17:23;;;;;;;1.13;0.85;;;4.30;69.70;;;;;;5078354;28;20492;-85
2021/04/17 05:19:49;;;;;;;0.80;0.70;;;4.20;69.70;;;;;;5078852;28;20023;-85
2021/04/17 05:22:14;;;;;;;0.80;0.80;;;4.30;69.80;;;;;;5078916;28;20476;-85
2021/04/17 05:24:40;;;;;;;0.88;0.80;;;4.30;69.90;;;;;;5078826;28;20027;-84
2021/04/17 05:27:06;;;;;;;0.85;0.85;;;4.30;70.50;;;;;;5077876;28;20118;-84
2021/04/17 05:29:32;;;;;;;1.95;1.00;;;4.30;69.80;;;;;;5077018;28;20508;-83
2021/04/17 05:31:57;;;;;;;0.82;0.82;;;4.40;69.90;;;;;;5077881;28;20077;-82
2021/04/17 05:34:23;;;;;;;0.80;0.80;;;4.40;69.90;;;;;;5076930;28;20021;-81
2021/04/17 05:36:48;;;;;;;0.73;0.73;;;4.40;69.90;;;;;;5075978;28;20506;-81
2021/04/17 05:39:14;;;;;;;0.50;0.50;;;4.50;70.00;;;;;;5077148;28;20032;-81
2021/04/17 05:41:39;;;;;;;1.17;0.95;;;4.50;70.00;;;;;;5075389;28;20017;-81
2021/04/17 05:44:10;;;;;;;1.15;0.90;;;4.60;70.00;;;;;;5076977;28;20025;-81
2021/04/17 05:46:38;;;;;;;1.02;0.98;;;4.60;70.00;;;;;;5076337;28;20021;-81
2021/04/17 05:49:03;;;;;;;1.20;1.10;;;4.60;70.10;;;;;;5076743;28;20037;-81
2021/04/17 05:51:32;;;;;;;0.80;0.80;;;4.60;70.00;;;;;;5077020;28;20024;-81
2021/04/17 05:53:57;;;;;;;1.02;0.80;;;4.70;70.10;;;;;;5076365;28;20377;-82
2021/04/17 05:56:23;;;;;;;0.75;0.75;;;4.80;70.10;;;;;;5075172;28;20028;-81
2021/04/17 05:58:48;;;;;;;1.15;1.00;;;4.80;70.10;;;;;;5076793;28;20035;-83
2021/04/17 06:01:14;;;;;;;1.20;1.00;;;4.80;70.10;;;;;;5076786;28;20028;-81
2021/04/17 06:03:39;;;;;;;1.35;0.90;;;4.90;70.10;;;;;;5076698;28;20020;-80
2021/04/17 06:06:05;;;;;;;1.08;1.00;;;4.90;70.10;;;;;;5075988;28;20105;-81
2021/04/17 06:08:30;;;;;;;1.73;0.80;;;4.90;70.10;;;;;;5075182;28;20036;-83
2021/04/17 06:10:56;;;;;;;1.08;1.00;;;5.00;70.10;;;;;;5076560;28;20021;-79
2021/04/17 06:13:21;;;;;;;1.45;1.00;;;5.00;70.10;;;;;;5075944;28;20473;-78
2021/04/17 06:15:47;;;;;;;0.63;0.63;;;5.10;70.10;;;;;;5075958;28;20520;-80
2021/04/17 06:18:13;;;;;;;1.40;1.30;;;5.20;70.10;;;;;;5074560;28;20023;-78
2021/04/17 06:20:38;;;;;;;3.25;1.38;;;5.20;70.00;;;;;;5075051;28;20409;-78
2021/04/17 06:23:04;;;;;;;2.10;0.90;;;5.30;70.00;;;;;;5074543;28;20128;-79
2021/04/17 06:25:32;;;;;;;1.42;1.10;;;5.30;70.00;;;;;;5073585;28;20039;-78
2021/04/17 06:27:57;;;;;;;1.00;0.90;;;5.40;70.10;;;;;;5074277;28;20059;-79
2021/04/17 06:30:23;;;;;;;2.13;1.65;;;5.50;70.10;;;;;;5075749;28;20064;-80
2021/04/17 06:32:49;;;;;;;1.30;1.20;;;5.50;70.10;;;;;;5075419;28;20554;-77
2021/04/17 06:35:15;;;;;;;1.30;0.90;;;5.60;70.10;;;;;;5075420;28;20085;-80
2021/04/17 06:37:40;;;;;;;1.17;1.05;;;5.60;70.10;;;;;;5075048;28;20028;-78
2021/04/17 06:40:07;;;;;;;0.77;0.77;;;5.70;70.00;;;;;;5075485;28;20048;-79
2021/04/17 06:42:36;;;;;;;1.60;0.75;;;5.80;70.00;;;;;;5075123;28;20373;-79
2021/04/17 06:45:02;;;;;;;1.48;1.08;;;5.90;70.00;;;;;;5074029;28;20035;-78
2021/04/17 06:47:28;;;;;;;1.10;1.00;;;6.00;69.90;;;;;;5075159;28;20035;-80
2021/04/17 06:49:55;;;;;;;0.80;0.80;;;6.00;69.80;;;;;;5072907;28;20036;-80
2021/04/17 06:52:21;;;;;;;0.80;0.80;;;6.10;69.80;;;;;;5071932;28;20048;-80
2021/04/17 06:54:49;;;;;;;0.80;0.77;;;6.20;69.80;;;;;;5072746;28;20017;-80
2021/04/17 06:57:14;;;;;;;1.33;1.23;;;6.30;69.60;;;;;;5072807;28;20024;-79
2021/04/17 06:59:44;;;;;;;1.13;0.80;;;6.50;69.60;;;;;;5072440;28;20051;-79
2021/04/17 07:02:15;;;;;;;0.90;0.80;;;6.60;69.40;;;;;;5072235;28;20111;-78
2021/04/17 07:04:44;;;;;;;0.90;0.70;;;6.70;69.30;;;;;;5072057;28;20108;-79
2021/04/17 07:07:11;;;;;;;0.80;0.80;;;6.80;69.20;;;;;;5071779;28;20025;-79
2021/04/17 07:09:38;;;;;;;1.00;0.82;;;6.90;69.10;;;;;;5072060;28;20047;-78
2021/04/17 07:12:04;;;;;;;1.98;0.88;;;7.10;69.70;;;;;;5071948;28;20033;-79
2021/04/17 07:14:47;;;;;;;1.00;0.90;;;7.10;68.90;;;;;;5069322;28;20423;-81
2021/04/17 07:17:13;;;;;;;0.68;0.57;;;7.30;68.90;;;;;;5072043;28;20028;-77
2021/04/17 07:19:55;;;;;;;0.68;0.50;;;7.40;68.80;;;;;;5073393;28;20032;-78
2021/04/17 07:22:27;;;;;;;0.88;0.57;;;7.50;68.70;;;;;;5074063;28;20051;-79
2021/04/17 07:25:05;;;;;;;0.25;0.25;;;7.60;68.60;;;;;;5074592;28;20027;-78
2021/04/17 07:27:46;;;;;;;1.90;0.70;;;7.70;68.50;;;;;;5073438;28;20427;-78
2021/04/17 07:30:15;;;;;;;1.05;1.02;;;7.80;68.40;;;;;;5073343;28;20058;-79
2021/04/17 07:32:48;;;;;;;1.80;1.10;;;7.80;68.40;;;;;;5074256;28;20519;-78
2021/04/17 07:35:22;;;;;;;0.80;0.80;;;7.80;68.40;;;;;;5074347;28;20028;-78
2021/04/17 07:38:07;;;;;;;0.80;0.80;;;7.90;68.30;;;;;;5074262;28;20029;-79
2021/04/17 07:40:33;;;;;;;2.03;1.02;;;7.90;68.30;;;;;;5074508;28;20036;-80
2021/04/17 07:42:59;;;;;;;1.20;0.90;;;8.00;68.30;;;;;;5074233;28;20095;-78
2021/04/17 07:45:34;;;;;;;1.70;0.98;;;8.10;68.10;;;;;;5074370;28;20100;-79
2021/04/17 07:48:20;;;;;;;0.57;0.57;;;8.20;67.80;;;;;;5072763;28;20448;-79
2021/04/17 07:50:46;;;;;;;0.82;0.82;;;8.30;67.60;;;;;;5073565;28;20020;-79
2021/04/17 07:53:33;;;;;;;0.70;0.70;;;8.40;67.60;;;;;;5074293;28;20017;-79
2021/04/17 07:56:27;;;;;;;0.70;0.70;;;8.50;67.50;;;;;;5073913;28;20026;-78
2021/04/17 07:58:55;;;;;;;0.55;0.52;;;8.60;67.20;;;;;;5038506;28;20037;-78
2021/04/17 08:01:22;;;;;;;0.70;0.70;;;8.70;67.30;;;;;;5074234;28;20047;-79
2021/04/17 08:03:48;;;;;;;0.75;0.70;;;8.80;67.40;;;;;;5074285;28;20440;-78
2021/04/17 08:06:15;;;;;;;0.82;0.82;;;8.90;66.90;;;;;;5073840;28;20123;-78
2021/04/17 08:08:44;;;;;;;3.03;1.00;;;8.90;66.80;;;;;;5072775;28;20115;-78
2021/04/17 08:11:10;;;;;;;0.53;0.50;;;8.90;66.80;;;;;;5073991;28;20026;-78
2021/04/17 08:13:40;;;;;;;1.38;0.77;;;8.90;66.70;;;;;;5074107;28;20017;-79
2021/04/17 08:16:08;;;;;;;0.57;0.57;;;9.00;66.70;;;;;;5072840;28;20074;-78
2021/04/17 08:18:36;;;;;;;1.00;0.63;;;9.10;66.50;;;;;;5073914;28;20066;-78
2021/04/17 08:21:07;;;;;;;0.70;0.70;;;9.20;66.40;;;;;;5071830;28;20056;-78
2021/04/17 08:23:33;;;;;;;2.50;0.65;;;9.30;66.10;;;;;;5073820;28;20048;-78
2021/04/17 08:25:59;;;;;;;0.80;0.80;;;9.30;66.00;;;;;;5073634;28;20028;-78
2021/04/17 08:28:27;;;;;;;0.70;0.70;;;9.40;65.90;;;;;;5073790;28;20503;-76
2021/04/17 08:31:33;;;;;;;0.65;0.65;;;9.40;65.60;;;;;;5073446;28;20037;-79
2021/04/17 08:34:24;;;;;;;0.68;0.68;;;9.50;65.40;;;;;;5073190;28;20108;-78
2021/04/17 08:36:52;;;;;;;1.20;0.55;;;9.50;65.40;;;;;;5069448;28;20029;-79
2021/04/17 08:39:36;;;;;;;0.65;0.65;;;9.60;65.40;;;;;;5073740;28;20062;-80
2021/04/17 08:42:06;;;;;;;0.60;0.60;;;9.70;65.10;;;;;;5073583;28;20028;-79
2021/04/17 08:44:40;;;;;;;0.60;0.60;;;9.80;64.90;;;;;;5073787;28;20025;-79
2021/04/17 08:47:08;;;;;;;2.67;1.02;;;9.90;64.70;;;;;;5076485;28;20074;-74
2021/04/17 08:49:36;;;;;;;1.02;0.85;;;10.00;64.40;;;;;;5079431;28;20043;-75
2021/04/17 08:52:22;;;;;;;2.88;1.10;;;10.10;64.30;;;;;;5079982;28;20028;-76
2021/04/17 08:54:54;;;;;;;1.42;1.13;;;10.00;64.20;;;;;;5080107;28;20032;-75
2021/04/17 08:57:20;;;;;;;2.72;1.05;;;10.00;64.00;;;;;;5079777;28;20029;-76
2021/04/17 08:59:57;;;;;;;1.95;1.02;;;10.10;64.10;;;;;;5078621;28;20082;-75
2021/04/17 09:02:24;;;;;;;1.25;1.05;;;10.20;63.80;;;;;;5079392;28;20475;-76
2021/04/17 09:04:58;;;;;;;1.45;0.68;;;10.30;63.70;;;;;;5079959;28;20481;-76
2021/04/17 09:07:25;;;;;;;0.85;0.82;;;10.40;63.40;;;;;;5079875;28;20125;-78
2021/04/17 09:09:51;;;;;;;1.20;1.10;;;10.50;63.20;;;;;;5078601;28;20126;-76
2021/04/17 09:12:19;;;;;;;3.85;1.55;;;10.60;62.90;;;;;;5079830;28;20042;-77
2021/04/17 09:14:53;;;;;;;1.40;1.00;;;10.60;62.70;;;;;;5079581;28;20025;-76
2021/04/17 09:17:41;;;;;;;1.08;1.00;;;10.60;62.70;;;;;;5079158;28;20078;-76
2021/04/17 09:20:32;;;;;;;1.33;1.08;;;10.70;62.70;;;;;;5079671;28;20024;-75
2021/04/17 09:22:58;;;;;;;1.70;1.10;;;10.80;62.10;;;;;;5079611;28;20130;-75
2021/04/17 09:25:38;;;;;;;1.45;1.10;;;10.80;62.20;;;;;;5079673;28;20380;-73
2021/04/17 09:28:03;;;;;;;1.15;1.13;;;10.90;62.00;;;;;;5079427;28;20476;-75
2021/04/17 09:30:29;;;;;;;1.30;0.95;;;10.90;62.00;;;;;;5079471;28;20031;-76
2021/04/17 09:32:56;;;;;;;1.25;0.90;;;11.10;61.90;;;;;;5079028;28;20044;-77
2021/04/17 09:35:35;;;;;;;1.38;0.90;;;11.30;61.70;;;;;;5079878;28;20044;-77
2021/04/17 09:38:15;;;;;;;0.70;0.70;;;11.50;61.20;;;;;;5079648;28;20023;-74
2021/04/17 09:40:44;;;;;;;2.17;1.65;;;11.70;60.80;;;;;;5079550;28;20408;-76
2021/04/17 09:43:39;;;;;;;1.30;1.20;;;11.80;60.40;;;;;;5079633;28;20043;-76
2021/04/17 09:46:17;;;;;;;2.00;1.35;;;11.90;60.00;;;;;;5062072;28;20036;-75
2021/04/17 09:48:43;;;;;;;1.50;0.98;;;12.00;59.90;;;;;;5079457;28;20487;-78
2021/04/17 09:51:25;;;;;;;1.27;1.00;;;12.20;59.80;;;;;;5077973;28;20108;-77
2021/04/17 09:53:52;;;;;;;1.23;0.93;;;12.40;59.70;;;;;;5079492;28;20024;-75
2021/04/17 09:56:28;;;;;;;2.50;1.45;;;12.50;59.40;;;;;;5079367;28;20056;-75
2021/04/17 09:58:56;;;;;;;4.00;1.80;;;12.40;59.00;;;;;;5077596;28;20028;-76
2021/04/17 10:01:22;;;;;;;2.17;1.60;;;12.30;59.00;;;;;;5075804;28;20050;-77
2021/04/17 10:04:01;;;;;;;1.10;0.90;;;12.10;59.40;;;;;;5076383;28;20133;-77
2021/04/17 10:06:34;;;;;;;1.33;1.23;;;12.10;59.70;;;;;;5076005;28;20032;-78
2021/04/17 10:09:06;;;;;;;0.93;0.93;;;12.10;59.80;;;;;;5076012;28;20515;-78
2021/04/17 10:11:32;;;;;;;1.33;1.23;;;12.00;59.80;;;;;;5076000;28;20099;-75
2021/04/17 10:13:58;;;;;;;1.80;1.08;;;11.80;59.90;;;;;;5075966;28;20451;-74
2021/04/17 10:16:34;;;;;;;1.67;1.15;;;11.70;60.00;;;;;;5075389;28;20028;-77
2021/04/17 10:19:02;;;;;;;1.13;1.00;;;11.70;60.00;;;;;;5074812;28;20400;-76
2021/04/17 10:21:31;;;;;;;1.00;0.93;;;11.70;59.90;;;;;;5074568;28;20029;-75
2021/04/17 10:24:23;;;;;;;0.82;0.82;;;11.80;59.90;;;;;;5075608;28;20104;-75
2021/04/17 10:27:01;;;;;;;2.72;1.15;;;12.00;59.70;;;;;;5075865;28;20411;-74
2021/04/17 10:29:47;;;;;;;1.40;0.95;;;12.20;59.30;;;;;;5075433;28;20059;-77
2021/04/17 10:32:24;;;;;;;6.25;1.60;;;12.40;58.90;;;;;;5076080;28;20531;-77
2021/04/17 10:34:50;;;;;;;1.30;1.05;;;12.50;58.60;;;;;;5076198;28;20029;-77
2021/04/17 10:37:18;;;;;;;1.65;1.00;;;12.50;58.50;;;;;;5075430;28;20162;-79
2021/04/17 10:40:10;;;;;;;1.08;0.98;;;12.70;58.30;;;;;;5076139;28;20024;-79
2021/04/17 10:42:55;;;;;;;1.83;0.82;;;13.10;57.90;;;;;;5075297;28;20488;-79
2021/04/17 10:45:28;;;;;;;1.77;0.80;;;13.60;57.50;;;;;;5062516;28;20021;-78
2021/04/17 10:48:14;;;;;;;0.70;0.70;;;13.80;57.20;;;;;;5055806;28;20033;-79
2021/04/17 10:50:43;;;;;;;0.80;0.80;;;14.00;57.10;;;;;;5054915;28;20064;-79
2021/04/17 10:53:11;;;;;;;0.73;0.73;;;14.00;57.20;;;;;;5055190;28;20025;-79
2021/04/17 10:55:47;;;;;;;1.95;1.00;;;13.80;57.50;;;;;;5055623;28;20107;-78
2021/04/17 10:58:30;;;;;;;0.95;0.90;;;13.60;57.50;;;;;;5057014;28;20025;-79
2021/04/17 11:01:21;;;;;;;1.45;1.10;;;13.50;57.90;;;;;;5055354;28;20360;-79
2021/04/17 11:03:59;;;;;;;1.08;0.90;;;13.40;58.20;;;;;;5054982;28;20480;-80
2021/04/17 11:06:30;;;;;;;0.95;0.82;;;13.50;58.30;;;;;;5055239;28;20021;-78
2021/04/17 11:09:05;;;;;;;2.00;1.10;;;13.70;57.80;;;;;;5054920;28;20468;-79
2021/04/17 11:11:31;;;;;;;2.42;1.23;;;13.80;57.30;;;;;;5054732;28;20492;-79
2021/04/17 11:13:58;;;;;;;1.92;1.00;;;13.80;57.10;;;;;;5054414;28;20029;-78
2021/04/17 11:16:35;;;;;;;1.38;1.17;;;13.70;57.30;;;;;;5055771;28;20071;-78
2021/04/17 11:19:01;;;;;;;1.00;0.80;;;13.70;57.10;;;;;;5054892;28;20025;-80
2021/04/17 11:21:26;;;;;;;1.23;0.80;;;13.60;57.30;;;;;;5054882;28;20091;-79
2021/04/17 11:23:55;;;;;;;1.33;1.23;;;13.70;57.20;;;;;;5054618;28;20025;-80
2021/04/17 11:26:23;;;;;;;0.73;0.70;;;14.00;56.90;;;;;;5055297;28;20460;-80
2021/04/17 11:28:55;;;;;;;1.05;0.93;;;14.20;56.50;;;;;;5054493;28;20477;-78
2021/04/17 11:31:23;;;;;;;1.23;0.90;;;14.40;56.30;;;;;;5054543;28;20024;-78
2021/04/17 11:33:50;;;;;;;0.90;0.90;;;14.50;56.00;;;;;;5054887;28;20090;-78
2021/04/17 11:36:17;;;;;;;1.23;0.82;;;14.50;55.90;;;;;;5054720;28;20033;-77
2021/04/17 11:38:43;;;;;;;1.33;0.85;;;14.50;56.00;;;;;;5054336;28;20033;-79
2021/04/17 11:41:09;;;;;;;2.90;1.20;;;14.40;55.90;;;;;;5054573;28;20091;-79
2021/04/17 11:43:34;;;;;;;1.60;1.50;;;14.10;56.00;;;;;;5054415;28;20484;-79
2021/04/17 11:46:00;;;;;;;0.98;0.95;;;14.10;56.40;;;;;;5053040;28;20025;-78
2021/04/17 11:48:26;;;;;;;1.77;1.25;;;14.40;55.80;;;;;;5054380;28;20037;-79
2021/04/17 11:50:52;;;;;;;1.55;1.23;;;14.70;55.10;;;;;;5054398;28;20028;-79
2021/04/17 11:53:20;;;;;;;2.35;0.90;;;14.70;55.00;;;;;;5054545;28;20135;-79
2021/04/17 11:55:47;;;;;;;1.10;1.00;;;14.30;55.30;;;;;;5054213;28;20025;-78
2021/04/17 11:58:13;;;;;;;0.80;0.80;;;14.00;55.80;;;;;;5052658;28;20029;-78
2021/04/17 12:00:38;;;;;;;0.90;0.90;;;13.70;56.20;;;;;;5054221;28;20032;-79
2021/04/17 12:03:04;;;;;;;1.38;1.00;;;13.80;56.30;;;;;;5054043;28;20063;-78
2021/04/17 12:05:29;;;;;;;0.90;0.75;;;14.40;55.50;;;;;;5053775;28;20473;-79
2021/04/17 12:07:55;;;;;;;1.83;0.90;;;15.20;54.50;;;;;;5054279;28;20036;-78
2021/04/17 12:10:21;;;;;;;0.88;0.77;;;16.00;53.30;;;;;;5053815;28;20037;-78
2021/04/17 12:12:46;;;;;;;0.55;0.55;;;16.40;52.50;;;;;;5053496;28;20434;-81
2021/04/17 12:15:14;;;;;;;0.82;0.82;;;16.80;52.50;;;;;;5053912;28;20580;-81
2021/04/17 12:17:40;;;;;;;1.00;0.90;;;17.30;51.80;;;;;;5054115;28;20039;-80
2021/04/17 12:20:06;;;;;;;1.00;0.90;;;17.60;51.10;;;;;;5054477;28;20074;-80
2021/04/17 12:22:32;;;;;;;1.27;1.05;;;17.50;51.20;;;;;;5052825;28;20025;-78
2021/04/17 12:24:57;;;;;;;1.20;1.10;;;17.40;51.60;;;;;;5053887;28;20074;-79
2021/04/17 12:27:23;;;;;;;1.08;0.70;;;17.40;52.00;;;;;;5053277;28;20021;-79
2021/04/17 12:29:48;;;;;;;0.80;0.80;;;17.70;51.60;;;;;;5053623;28;20087;-79
2021/04/17 12:32:14;;;;;;;1.20;1.10;;;17.60;51.20;;;;;;5053418;28;20037;-77
2021/04/17 12:34:40;;;;;;;2.58;1.48;;;16.90;52.00;;;;;;5053616;28;20500;-77
2021/04/17 12:37:05;;;;;;;2.08;0.95;;;16.20;52.80;;;;;;5053557;28;20159;-79
2021/04/17 12:39:31;;;;;;;1.35;1.20;;;15.90;53.40;;;;;;5053806;28;20466;-79
2021/04/17 12:41:56;;;;;;;0.80;0.80;;;16.30;53.20;;;;;;5053600;28;20105;-78
2021/04/17 12:44:22;;;;;;;2.90;0.98;;;16.70;52.10;;;;;;5054334;28;20496;-78
2021/04/17 12:46:47;;;;;;;1.00;0.90;;;16.40;52.20;;;;;;5053505;28;20028;-79
2021/04/17 12:49:14;;;;;;;1.00;1.00;;;15.90;53.00;;;;;;5053639;28;20497;-78
2021/04/17 12:51:39;;;;;;;1.77;1.33;;;15.50;53.50;;;;;;5053481;28;20048;-78
2021/04/17 12:54:05;;;;;;;1.30;0.88;;;15.60;53.30;;;;;;5053443;28;20040;-79
2021/04/17 12:56:31;;;;;;;1.30;0.88;;;15.80;53.20;;;;;;5053328;28;20473;-78
2021/04/17 12:58:56;;;;;;;1.20;1.10;;;16.50;52.30;;;;;;5055252;28;20031;-78
2021/04/17 13:01:22;;;;;;;0.95;0.80;;;17.30;50.90;;;;;;5053489;28;20064;-80